N738DL KLAX-KSFO
Flight info
| Callsign | N738DL |
|---|---|
| Flight time | 0h 54m |
| Altitude | 34000 |
| Route | SUMMR2 STOKD SERFR SERFR4 |
| Aircraft | A320/M-SDE3FGHIRWY/LB1 |
Departure
| Time | 2026-04-25 20:25 |
|---|---|
| Airport | Los Angeles International Airport (KLAX) |
Arrival
| Time | 2026-04-25 21:19 |
|---|---|
| Airport | San Francisco International Airport (KSFO) |
| Time | Latitude | Longitude | Altitude | Speed | Heading |
|---|---|---|---|---|---|
| 2026-04-25 19:50 | 33.94144 | -118.40267 | 95 ft | 0 kts | 86° |
| 2026-04-25 20:06 | 33.94144 | -118.40281 | 104 ft | 4 kts | 91° |
| 2026-04-25 20:06 | 33.94147 | -118.40312 | 92 ft | 4 kts | 116° |
| 2026-04-25 20:07 | 33.94163 | -118.40334 | 94 ft | 4 kts | 166° |
| 2026-04-25 20:07 | 33.94169 | -118.40335 | 94 ft | 1 kts | 173° |
| 2026-04-25 20:14 | 33.94166 | -118.40335 | 95 ft | 2 kts | 173° |
| 2026-04-25 20:15 | 33.94124 | -118.40328 | 96 ft | 8 kts | 171° |
| 2026-04-25 20:15 | 33.94062 | -118.40319 | 95 ft | 10 kts | 173° |
| 2026-04-25 20:15 | 33.93989 | -118.40304 | 98 ft | 11 kts | 168° |
| 2026-04-25 20:15 | 33.93927 | -118.40336 | 100 ft | 10 kts | 249° |
| 2026-04-25 20:16 | 33.93919 | -118.40430 | 98 ft | 12 kts | 263° |
| 2026-04-25 20:16 | 33.93906 | -118.40541 | 98 ft | 15 kts | 262° |
| 2026-04-25 20:16 | 33.93893 | -118.40676 | 99 ft | 17 kts | 262° |
| 2026-04-25 20:16 | 33.93877 | -118.40830 | 97 ft | 20 kts | 264° |
| 2026-04-25 20:17 | 33.93856 | -118.41000 | 97 ft | 21 kts | 262° |
| 2026-04-25 20:17 | 33.93841 | -118.41177 | 97 ft | 17 kts | 260° |
| 2026-04-25 20:17 | 33.93903 | -118.41266 | 96 ft | 18 kts | 356° |
| 2026-04-25 20:17 | 33.94033 | -118.41285 | 96 ft | 20 kts | 353° |
| 2026-04-25 20:18 | 33.94179 | -118.41307 | 96 ft | 22 kts | 353° |
| 2026-04-25 20:18 | 33.94338 | -118.41331 | 96 ft | 24 kts | 352° |
| 2026-04-25 20:18 | 33.94511 | -118.41357 | 95 ft | 26 kts | 353° |
| 2026-04-25 20:18 | 33.94664 | -118.41380 | 96 ft | 22 kts | 352° |
| 2026-04-25 20:19 | 33.94788 | -118.41347 | 100 ft | 18 kts | 68° |
| 2026-04-25 20:19 | 33.94802 | -118.41191 | 100 ft | 20 kts | 83° |
| 2026-04-25 20:19 | 33.94818 | -118.41021 | 101 ft | 22 kts | 84° |
| 2026-04-25 20:19 | 33.94839 | -118.40831 | 100 ft | 24 kts | 84° |
| 2026-04-25 20:20 | 33.94860 | -118.40620 | 100 ft | 26 kts | 83° |
| 2026-04-25 20:20 | 33.94889 | -118.40391 | 100 ft | 29 kts | 81° |
| 2026-04-25 20:20 | 33.94901 | -118.40235 | 100 ft | 19 kts | 81° |
| 2026-04-25 20:20 | 33.94918 | -118.40068 | 99 ft | 21 kts | 85° |
| 2026-04-25 20:21 | 33.94937 | -118.39949 | 101 ft | 11 kts | 69° |
| 2026-04-25 20:21 | 33.94956 | -118.39920 | 102 ft | 0 kts | 33° |
| 2026-04-25 20:21 | 33.94957 | -118.39920 | 102 ft | 1 kts | 33° |
| 2026-04-25 20:22 | 33.94958 | -118.39919 | 102 ft | 0 kts | 31° |
| 2026-04-25 20:22 | 33.94962 | -118.39917 | 102 ft | 0 kts | 27° |
| 2026-04-25 20:22 | 33.94975 | -118.39914 | 103 ft | 7 kts | 9° |
| 2026-04-25 20:22 | 33.95022 | -118.39918 | 109 ft | 8 kts | 338° |
| 2026-04-25 20:23 | 33.95036 | -118.40005 | 109 ft | 16 kts | 263° |
| 2026-04-25 20:23 | 33.95035 | -118.40017 | 109 ft | 0 kts | 264° |
| 2026-04-25 20:24 | 33.95034 | -118.40028 | 109 ft | 14 kts | 264° |
| 2026-04-25 20:24 | 33.94989 | -118.40451 | 106 ft | 85 kts | 263° |
| 2026-04-25 20:24 | 33.94892 | -118.41386 | 108 ft | 138 kts | 263° |
| 2026-04-25 20:25 | 33.94770 | -118.42660 | 389 ft | 158 kts | 258° |
| 2026-04-25 20:25 | 33.94669 | -118.43989 | 997 ft | 160 kts | 260° |
| 2026-04-25 20:25 | 33.94536 | -118.45309 | 1716 ft | 158 kts | 261° |
| 2026-04-25 20:25 | 33.94397 | -118.46668 | 2220 ft | 173 kts | 263° |
| 2026-04-25 20:26 | 33.94308 | -118.48205 | 2555 ft | 196 kts | 266° |
| 2026-04-25 20:26 | 33.94246 | -118.49928 | 2889 ft | 216 kts | 266° |
| 2026-04-25 20:26 | 33.94163 | -118.51842 | 3247 ft | 240 kts | 264° |
| 2026-04-25 20:26 | 33.94017 | -118.53920 | 3856 ft | 255 kts | 263° |
| 2026-04-25 20:27 | 33.93846 | -118.56084 | 4661 ft | 265 kts | 263° |
| 2026-04-25 20:27 | 33.93667 | -118.58271 | 4986 ft | 266 kts | 263° |
| 2026-04-25 20:27 | 33.93484 | -118.60507 | 5315 ft | 264 kts | 263° |
| 2026-04-25 20:27 | 33.93308 | -118.62694 | 6012 ft | 267 kts | 264° |
| 2026-04-25 20:28 | 33.93130 | -118.64907 | 7020 ft | 265 kts | 264° |
| 2026-04-25 20:28 | 33.92953 | -118.67132 | 7894 ft | 268 kts | 264° |
| 2026-04-25 20:28 | 33.92780 | -118.69373 | 8768 ft | 270 kts | 263° |
| 2026-04-25 20:28 | 33.92605 | -118.71630 | 9648 ft | 272 kts | 263° |
| 2026-04-25 20:29 | 33.92425 | -118.73925 | 10291 ft | 282 kts | 263° |
| 2026-04-25 20:29 | 33.92232 | -118.76354 | 10674 ft | 298 kts | 262° |
| 2026-04-25 20:29 | 33.92034 | -118.78858 | 11373 ft | 302 kts | 262° |
| 2026-04-25 20:29 | 33.91836 | -118.81379 | 11874 ft | 303 kts | 261° |
| 2026-04-25 20:30 | 33.91707 | -118.83916 | 12010 ft | 304 kts | 268° |
| 2026-04-25 20:30 | 33.91796 | -118.86475 | 12639 ft | 306 kts | 268° |
| 2026-04-25 20:30 | 33.91877 | -118.89044 | 13491 ft | 306 kts | 266° |
| 2026-04-25 20:30 | 33.91952 | -118.91611 | 14285 ft | 307 kts | 266° |
| 2026-04-25 20:31 | 33.92025 | -118.94187 | 14912 ft | 310 kts | 266° |
| 2026-04-25 20:31 | 33.92098 | -118.96801 | 15529 ft | 314 kts | 267° |
| 2026-04-25 20:31 | 33.92207 | -118.99442 | 16129 ft | 320 kts | 271° |
| 2026-04-25 20:31 | 33.92715 | -119.02084 | 16729 ft | 331 kts | 284° |
| 2026-04-25 20:32 | 33.93747 | -119.04610 | 17319 ft | 342 kts | 295° |
| 2026-04-25 20:32 | 33.95022 | -119.07047 | 17951 ft | 346 kts | 295° |
| 2026-04-25 20:32 | 33.96289 | -119.09484 | 18520 ft | 349 kts | 295° |
| 2026-04-25 20:32 | 33.97576 | -119.11983 | 19074 ft | 352 kts | 295° |
| 2026-04-25 20:33 | 33.98868 | -119.14499 | 19640 ft | 354 kts | 294° |
| 2026-04-25 20:33 | 34.00211 | -119.17014 | 20211 ft | 361 kts | 299° |
| 2026-04-25 20:33 | 34.01912 | -119.19302 | 20769 ft | 373 kts | 310° |
| 2026-04-25 20:33 | 34.03300 | -119.20643 | 21147 ft | 382 kts | 316° |
| 2026-04-25 20:34 | 34.06186 | -119.23105 | 21871 ft | 387 kts | 316° |
| 2026-04-25 20:34 | 34.08395 | -119.24996 | 22421 ft | 390 kts | 315° |
| 2026-04-25 20:34 | 34.10615 | -119.26903 | 22881 ft | 394 kts | 315° |
| 2026-04-25 20:34 | 34.12861 | -119.28834 | 23388 ft | 398 kts | 315° |
| 2026-04-25 20:35 | 34.15123 | -119.30780 | 23859 ft | 401 kts | 315° |
| 2026-04-25 20:35 | 34.17405 | -119.32747 | 24330 ft | 403 kts | 315° |
| 2026-04-25 20:35 | 34.19699 | -119.34725 | 24797 ft | 406 kts | 315° |
| 2026-04-25 20:35 | 34.21976 | -119.36688 | 25247 ft | 408 kts | 315° |
| 2026-04-25 20:36 | 34.24291 | -119.38686 | 25676 ft | 411 kts | 315° |
| 2026-04-25 20:36 | 34.26623 | -119.40705 | 26101 ft | 413 kts | 315° |
| 2026-04-25 20:36 | 34.28969 | -119.42733 | 26526 ft | 415 kts | 315° |
| 2026-04-25 20:36 | 34.31326 | -119.44771 | 26932 ft | 418 kts | 315° |
| 2026-04-25 20:37 | 34.33696 | -119.46822 | 27347 ft | 420 kts | 315° |
| 2026-04-25 20:37 | 34.36081 | -119.48888 | 27764 ft | 423 kts | 315° |
| 2026-04-25 20:37 | 34.38476 | -119.50966 | 28153 ft | 425 kts | 315° |
| 2026-04-25 20:37 | 34.40850 | -119.53094 | 28541 ft | 423 kts | 311° |
| 2026-04-25 20:38 | 34.42976 | -119.55520 | 28937 ft | 419 kts | 305° |
| 2026-04-25 20:38 | 34.45026 | -119.58046 | 29311 ft | 422 kts | 305° |
| 2026-04-25 20:38 | 34.47090 | -119.60591 | 29692 ft | 424 kts | 305° |
| 2026-04-25 20:38 | 34.49165 | -119.63152 | 30075 ft | 427 kts | 306° |
| 2026-04-25 20:39 | 34.51250 | -119.65727 | 30391 ft | 429 kts | 305° |
| 2026-04-25 20:39 | 34.53352 | -119.68318 | 30745 ft | 431 kts | 306° |
| 2026-04-25 20:39 | 34.55464 | -119.70918 | 31107 ft | 433 kts | 306° |
| 2026-04-25 20:39 | 34.56147 | -119.71759 | 31250 ft | 434 kts | 306° |
| 2026-04-25 20:40 | 34.58997 | -119.75266 | 31689 ft | 437 kts | 306° |
| 2026-04-25 20:40 | 34.61816 | -119.78735 | 32278 ft | 434 kts | 305° |
| 2026-04-25 20:40 | 34.63932 | -119.81344 | 32731 ft | 433 kts | 305° |
| 2026-04-25 20:40 | 34.66041 | -119.83950 | 33271 ft | 432 kts | 305° |
| 2026-04-25 20:41 | 34.68145 | -119.86558 | 33728 ft | 431 kts | 305° |
| 2026-04-25 20:41 | 34.70241 | -119.89161 | 33935 ft | 430 kts | 305° |
| 2026-04-25 20:41 | 34.72313 | -119.91724 | 33965 ft | 418 kts | 304° |
| 2026-04-25 20:41 | 34.74321 | -119.94198 | 33969 ft | 406 kts | 305° |
| 2026-04-25 20:42 | 34.78247 | -119.99070 | 33972 ft | 402 kts | 305° |
| 2026-04-25 20:42 | 34.82113 | -120.03905 | 33983 ft | 401 kts | 304° |
| 2026-04-25 20:43 | 34.86005 | -120.08781 | 33986 ft | 401 kts | 304° |
| 2026-04-25 20:43 | 34.89907 | -120.13644 | 34000 ft | 402 kts | 304° |
| 2026-04-25 20:44 | 34.93814 | -120.18510 | 34000 ft | 402 kts | 305° |
| 2026-04-25 20:44 | 34.97724 | -120.23407 | 33998 ft | 403 kts | 305° |
| 2026-04-25 20:45 | 35.01637 | -120.28318 | 34003 ft | 404 kts | 305° |
| 2026-04-25 20:45 | 35.05558 | -120.33236 | 34005 ft | 404 kts | 305° |
| 2026-04-25 20:46 | 35.09490 | -120.38157 | 34008 ft | 406 kts | 307° |
| 2026-04-25 20:46 | 35.13597 | -120.42859 | 34027 ft | 409 kts | 310° |
| 2026-04-25 20:47 | 35.17854 | -120.47504 | 34017 ft | 409 kts | 310° |
| 2026-04-25 20:47 | 35.22078 | -120.52167 | 34005 ft | 409 kts | 309° |
| 2026-04-25 20:48 | 35.26275 | -120.56877 | 34011 ft | 410 kts | 310° |
| 2026-04-25 20:48 | 35.30451 | -120.61592 | 34014 ft | 411 kts | 310° |
| 2026-04-25 20:49 | 35.34663 | -120.66343 | 34008 ft | 411 kts | 310° |
| 2026-04-25 20:49 | 35.38880 | -120.71104 | 34012 ft | 412 kts | 310° |
| 2026-04-25 20:50 | 35.43103 | -120.75871 | 33996 ft | 413 kts | 310° |
| 2026-04-25 20:50 | 35.47292 | -120.80617 | 34009 ft | 413 kts | 310° |
| 2026-04-25 20:51 | 35.51843 | -120.85055 | 34012 ft | 419 kts | 316° |
| 2026-04-25 20:51 | 35.56505 | -120.89371 | 34012 ft | 420 kts | 316° |
| 2026-04-25 20:52 | 35.59590 | -120.92233 | 34023 ft | 419 kts | 316° |
| 2026-04-25 20:52 | 35.65813 | -120.98028 | 34020 ft | 419 kts | 316° |
| 2026-04-25 20:53 | 35.70431 | -121.02334 | 34013 ft | 420 kts | 316° |
| 2026-04-25 20:53 | 35.75093 | -121.06673 | 34016 ft | 420 kts | 316° |
| 2026-04-25 20:54 | 35.79749 | -121.11016 | 34009 ft | 420 kts | 316° |
| 2026-04-25 20:54 | 35.84406 | -121.15380 | 33970 ft | 424 kts | 316° |
| 2026-04-25 20:55 | 35.86778 | -121.17618 | 33487 ft | 431 kts | 316° |
| 2026-04-25 20:55 | 35.89149 | -121.19846 | 33031 ft | 427 kts | 316° |
| 2026-04-25 20:55 | 35.91513 | -121.22057 | 32566 ft | 425 kts | 316° |
| 2026-04-25 20:55 | 35.93866 | -121.24257 | 32091 ft | 423 kts | 316° |
| 2026-04-25 20:56 | 35.96201 | -121.26448 | 31631 ft | 422 kts | 315° |
| 2026-04-25 20:56 | 35.97748 | -121.27901 | 31333 ft | 420 kts | 315° |
| 2026-04-25 20:56 | 36.00852 | -121.30816 | 30730 ft | 418 kts | 315° |
| 2026-04-25 20:56 | 36.03155 | -121.32988 | 30306 ft | 416 kts | 315° |
| 2026-04-25 20:57 | 36.04676 | -121.34425 | 30005 ft | 414 kts | 314° |
| 2026-04-25 20:57 | 36.06976 | -121.36561 | 29561 ft | 414 kts | 319° |
| 2026-04-25 20:57 | 36.09400 | -121.38471 | 29176 ft | 412 kts | 321° |
| 2026-04-25 20:57 | 36.11819 | -121.40352 | 28785 ft | 409 kts | 321° |
| 2026-04-25 20:58 | 36.14222 | -121.42219 | 28404 ft | 407 kts | 321° |
| 2026-04-25 20:58 | 36.16615 | -121.44085 | 28012 ft | 404 kts | 321° |
| 2026-04-25 20:58 | 36.18981 | -121.45932 | 27631 ft | 400 kts | 321° |
| 2026-04-25 20:58 | 36.21303 | -121.47750 | 27250 ft | 398 kts | 321° |
| 2026-04-25 20:59 | 36.23639 | -121.49581 | 26864 ft | 396 kts | 321° |
| 2026-04-25 20:59 | 36.25971 | -121.51404 | 26462 ft | 395 kts | 322° |
| 2026-04-25 20:59 | 36.28298 | -121.53219 | 26083 ft | 393 kts | 323° |
| 2026-04-25 20:59 | 36.30611 | -121.55026 | 25656 ft | 392 kts | 324° |
| 2026-04-25 21:00 | 36.32912 | -121.56827 | 25241 ft | 390 kts | 324° |
| 2026-04-25 21:00 | 36.34425 | -121.58015 | 24969 ft | 389 kts | 324° |
| 2026-04-25 21:00 | 36.39731 | -121.62182 | 23979 ft | 387 kts | 325° |
| 2026-04-25 21:01 | 36.42002 | -121.63970 | 23546 ft | 387 kts | 325° |
| 2026-04-25 21:01 | 36.44266 | -121.65755 | 23075 ft | 385 kts | 325° |
| 2026-04-25 21:01 | 36.46520 | -121.67533 | 22648 ft | 381 kts | 325° |
| 2026-04-25 21:01 | 36.48756 | -121.69298 | 22223 ft | 378 kts | 325° |
| 2026-04-25 21:02 | 36.50967 | -121.71042 | 21803 ft | 376 kts | 325° |
| 2026-04-25 21:02 | 36.53165 | -121.72775 | 21384 ft | 372 kts | 325° |
| 2026-04-25 21:02 | 36.55342 | -121.74495 | 20970 ft | 369 kts | 325° |
| 2026-04-25 21:02 | 36.57503 | -121.76205 | 20531 ft | 367 kts | 325° |
| 2026-04-25 21:03 | 36.59650 | -121.77903 | 20122 ft | 364 kts | 325° |
| 2026-04-25 21:03 | 36.61782 | -121.79591 | 19710 ft | 362 kts | 326° |
| 2026-04-25 21:03 | 36.63899 | -121.81266 | 19298 ft | 359 kts | 325° |
| 2026-04-25 21:03 | 36.66000 | -121.82933 | 18883 ft | 357 kts | 326° |
| 2026-04-25 21:04 | 36.68085 | -121.84593 | 18474 ft | 355 kts | 326° |
| 2026-04-25 21:04 | 36.70159 | -121.86242 | 18041 ft | 352 kts | 326° |
| 2026-04-25 21:04 | 36.72217 | -121.87876 | 17680 ft | 348 kts | 326° |
| 2026-04-25 21:04 | 36.74357 | -121.89250 | 17304 ft | 345 kts | 337° |
| 2026-04-25 21:05 | 36.76614 | -121.90122 | 16896 ft | 343 kts | 347° |
| 2026-04-25 21:05 | 36.78929 | -121.90767 | 16519 ft | 340 kts | 347° |
| 2026-04-25 21:05 | 36.81227 | -121.91403 | 16134 ft | 337 kts | 348° |
| 2026-04-25 21:05 | 36.83483 | -121.92026 | 15751 ft | 328 kts | 348° |
| 2026-04-25 21:06 | 36.85682 | -121.92635 | 15374 ft | 320 kts | 348° |
| 2026-04-25 21:06 | 36.87829 | -121.93231 | 15015 ft | 312 kts | 348° |
| 2026-04-25 21:06 | 36.89923 | -121.93814 | 14660 ft | 305 kts | 348° |
| 2026-04-25 21:06 | 36.91284 | -121.94195 | 14426 ft | 300 kts | 348° |
| 2026-04-25 21:07 | 36.93969 | -121.94955 | 13979 ft | 291 kts | 348° |
| 2026-04-25 21:07 | 36.95924 | -121.95541 | 13615 ft | 285 kts | 345° |
| 2026-04-25 21:07 | 36.97807 | -121.96227 | 13282 ft | 279 kts | 342° |
| 2026-04-25 21:07 | 36.99653 | -121.96956 | 12961 ft | 278 kts | 342° |
| 2026-04-25 21:08 | 37.01491 | -121.97697 | 12647 ft | 277 kts | 341° |
| 2026-04-25 21:08 | 37.03325 | -121.98438 | 12325 ft | 277 kts | 341° |
| 2026-04-25 21:08 | 37.05155 | -121.99169 | 12006 ft | 276 kts | 341° |
| 2026-04-25 21:08 | 37.06984 | -121.99893 | 11683 ft | 275 kts | 341° |
| 2026-04-25 21:09 | 37.10608 | -122.01318 | 11049 ft | 275 kts | 341° |
| 2026-04-25 21:09 | 37.12433 | -122.02034 | 10731 ft | 275 kts | 341° |
| 2026-04-25 21:09 | 37.14260 | -122.02749 | 10396 ft | 275 kts | 341° |
| 2026-04-25 21:10 | 37.16093 | -122.03465 | 10072 ft | 276 kts | 341° |
| 2026-04-25 21:10 | 37.17931 | -122.04184 | 9731 ft | 277 kts | 340° |
| 2026-04-25 21:10 | 37.19773 | -122.04907 | 9392 ft | 277 kts | 340° |
| 2026-04-25 21:10 | 37.21617 | -122.05631 | 9056 ft | 277 kts | 341° |
| 2026-04-25 21:11 | 37.23452 | -122.06352 | 8722 ft | 276 kts | 341° |
| 2026-04-25 21:11 | 37.25282 | -122.07069 | 8397 ft | 275 kts | 341° |
| 2026-04-25 21:11 | 37.27112 | -122.07786 | 8070 ft | 274 kts | 340° |
| 2026-04-25 21:11 | 37.28935 | -122.08500 | 7713 ft | 274 kts | 341° |
| 2026-04-25 21:12 | 37.30731 | -122.09206 | 7371 ft | 275 kts | 340° |
| 2026-04-25 21:12 | 37.32549 | -122.09921 | 7049 ft | 274 kts | 342° |
| 2026-04-25 21:12 | 37.34379 | -122.10645 | 6685 ft | 276 kts | 341° |
| 2026-04-25 21:12 | 37.35615 | -122.11135 | 6432 ft | 276 kts | 341° |
| 2026-04-25 21:13 | 37.38029 | -122.12086 | 5984 ft | 274 kts | 342° |
| 2026-04-25 21:13 | 37.39882 | -122.12745 | 5630 ft | 275 kts | 343° |
| 2026-04-25 21:13 | 37.41717 | -122.13353 | 5396 ft | 271 kts | 343° |
| 2026-04-25 21:13 | 37.43543 | -122.13946 | 5080 ft | 270 kts | 344° |
| 2026-04-25 21:14 | 37.45378 | -122.14546 | 4467 ft | 280 kts | 344° |
| 2026-04-25 21:14 | 37.47313 | -122.15184 | 3725 ft | 293 kts | 343° |
| 2026-04-25 21:14 | 37.49278 | -122.15836 | 3420 ft | 287 kts | 342° |
| 2026-04-25 21:14 | 37.51136 | -122.16451 | 3280 ft | 265 kts | 342° |
| 2026-04-25 21:15 | 37.52795 | -122.17151 | 3195 ft | 240 kts | 328° |
| 2026-04-25 21:15 | 37.54008 | -122.18422 | 3011 ft | 219 kts | 304° |
| 2026-04-25 21:15 | 37.54752 | -122.20016 | 2720 ft | 206 kts | 294° |
| 2026-04-25 21:15 | 37.55403 | -122.21569 | 2499 ft | 193 kts | 294° |
| 2026-04-25 21:16 | 37.56007 | -122.23000 | 2308 ft | 178 kts | 294° |
| 2026-04-25 21:16 | 37.56559 | -122.24312 | 2125 ft | 160 kts | 294° |
| 2026-04-25 21:16 | 37.57044 | -122.25463 | 1917 ft | 142 kts | 294° |
| 2026-04-25 21:16 | 37.57503 | -122.26554 | 1742 ft | 137 kts | 295° |
| 2026-04-25 21:17 | 37.57937 | -122.27587 | 1555 ft | 133 kts | 295° |
| 2026-04-25 21:17 | 37.58368 | -122.28612 | 1373 ft | 132 kts | 295° |
| 2026-04-25 21:17 | 37.58795 | -122.29627 | 1180 ft | 131 kts | 294° |
| 2026-04-25 21:17 | 37.59223 | -122.30646 | 986 ft | 132 kts | 295° |
| 2026-04-25 21:18 | 37.59646 | -122.31664 | 818 ft | 132 kts | 293° |
| 2026-04-25 21:18 | 37.60073 | -122.32677 | 633 ft | 130 kts | 294° |
| 2026-04-25 21:18 | 37.60511 | -122.33676 | 427 ft | 131 kts | 295° |
| 2026-04-25 21:18 | 37.60929 | -122.34708 | 254 ft | 131 kts | 291° |
| 2026-04-25 21:19 | 37.61357 | -122.35736 | 80 ft | 132 kts | 292° |
| 2026-04-25 21:19 | 37.61748 | -122.36699 | 21 ft | 106 kts | 300° |
| 2026-04-25 21:19 | 37.62024 | -122.37314 | 17 ft | 57 kts | 297° |
| 2026-04-25 21:19 | 37.62173 | -122.37710 | 20 ft | 35 kts | 297° |
| 2026-04-25 21:20 | 37.62198 | -122.37894 | 22 ft | 15 kts | 279° |
| 2026-04-25 21:20 | 37.62215 | -122.37980 | 27 ft | 15 kts | 284° |
| 2026-04-25 21:20 | 37.62228 | -122.38106 | 26 ft | 0 kts | 274° |
| 2026-04-25 21:21 | 37.62228 | -122.38115 | 27 ft | 5 kts | 274° |
| 2026-04-25 21:22 | 37.62226 | -122.38212 | 24 ft | 10 kts | 260° |
| 2026-04-25 21:22 | 37.62183 | -122.38299 | 21 ft | 14 kts | 207° |
| 2026-04-25 21:22 | 37.62085 | -122.38336 | 23 ft | 15 kts | 195° |
| 2026-04-25 21:22 | 37.62018 | -122.38327 | 23 ft | 10 kts | 128° |
| 2026-04-25 21:23 | 37.61981 | -122.38236 | 25 ft | 13 kts | 117° |
| 2026-04-25 21:23 | 37.61933 | -122.38121 | 23 ft | 17 kts | 118° |
| 2026-04-25 21:23 | 37.61891 | -122.38102 | 22 ft | 6 kts | 199° |
| 2026-04-25 21:23 | 37.61878 | -122.38108 | 22 ft | 3 kts | 201° |
| 2026-04-25 21:24 | 37.61861 | -122.38117 | 21 ft | 3 kts | 202° |
| 2026-04-25 21:24 | 37.61856 | -122.38120 | 22 ft | 0 kts | 201° |